Time;durP1;ratioP1;P1;durP2;ratioP2;P2;SDS_P1;SDS_P2;PMS_P1;PMS_P2;Temp;Humidity;BMP_temperature;BMP_pressure;BME280_temperature;BME280_humidity;BME280_pressure;Samples;Min_cycle;Max_cycle;Signal;HPM_P1;HPM_P2
2023/07/11 06:00:12;;;;;;;5.78;1.45;;;;;;;;;;6043777;23;20017;31
2023/07/11 06:02:38;;;;;;;5.25;1.52;;;;;;;;;;4932517;29;20071;-81
2023/07/11 06:05:04;;;;;;;3.60;0.85;;;;;;;;;;4934145;29;20075;-81
2023/07/11 06:07:31;;;;;;;1.83;0.75;;;;;;;;;;4933742;29;20420;-81
2023/07/11 06:09:57;;;;;;;2.35;0.77;;;;;;;;;;4934724;29;20127;-83
2023/07/11 06:12:22;;;;;;;1.45;0.60;;;;;;;;;;4933491;29;20202;-79
2023/07/11 06:14:51;;;;;;;2.17;0.50;;;;;;;;;;4932787;29;20131;-80
2023/07/11 06:17:17;;;;;;;1.00;0.30;;;;;;;;;;4932935;29;20048;-80
2023/07/11 06:19:42;;;;;;;2.60;0.70;;;;;;;;;;4934001;29;20050;-80
2023/07/11 06:22:08;;;;;;;0.40;0.28;;;;;;;;;;4934110;29;20508;-80
2023/07/11 06:24:33;;;;;;;0.77;0.30;;;;;;;;;;4934075;29;20559;-79
2023/07/11 06:26:59;;;;;;;0.90;0.20;;;;;;;;;;4933708;29;20603;-81
2023/07/11 06:29:27;;;;;;;0.30;0.30;;;;;;;;;;4933739;29;20480;-82
2023/07/11 06:31:53;;;;;;;1.13;0.40;;;;;;;;;;4942904;29;20459;-81
2023/07/11 06:34:18;;;;;;;1.05;0.35;;;;;;;;;;4952617;29;20055;-80
2023/07/11 06:36:44;;;;;;;0.35;0.30;;;;;;;;;;4953504;29;20067;-80
2023/07/11 06:39:09;;;;;;;0.88;0.50;;;;;;;;;;4952504;29;20050;-81
2023/07/11 06:41:35;;;;;;;0.30;0.20;;;;;;;;;;4952961;29;20043;-81
2023/07/11 06:44:00;;;;;;;0.35;0.30;;;;;;;;;;4941961;29;20565;-80
2023/07/11 06:46:25;;;;;;;2.83;0.68;;;;;;;;;;4933056;29;20412;-81
2023/07/11 06:48:53;;;;;;;2.05;0.65;;;;;;;;;;4933992;29;20099;-80
2023/07/11 06:51:19;;;;;;;1.25;0.90;;;;;;;;;;4932898;29;20549;-80
2023/07/11 06:53:44;;;;;;;2.67;0.95;;;;;;;;;;4933737;29;20032;-81
2023/07/11 06:56:10;;;;;;;3.17;1.10;;;;;;;;;;4933357;29;20115;-81
2023/07/11 06:58:35;;;;;;;4.97;1.00;;;;;;;;;;4933654;29;20534;-81
2023/07/11 07:01:04;;;;;;;3.42;0.90;;;;;;;;;;4933363;29;20555;-81
2023/07/11 07:03:30;;;;;;;;;;;;;;;;;;4933800;29;20044;-82
2023/07/11 07:05:58;;;;;;;1.83;0.90;;;;;;;;;;4933548;29;19957;-81
2023/07/11 07:08:24;;;;;;;2.47;0.82;;;;;;;;;;4933116;29;20059;-82
2023/07/11 07:10:50;;;;;;;4.57;1.25;;;;;;;;;;4933006;29;20050;-82
2023/07/11 07:13:17;;;;;;;2.47;1.00;;;;;;;;;;4932753;29;20051;-81
2023/07/11 07:15:47;;;;;;;3.03;0.90;;;;;;;;;;4933438;29;20047;-80
2023/07/11 07:18:12;;;;;;;2.00;1.02;;;;;;;;;;4932920;29;20435;-81
2023/07/11 07:20:38;;;;;;;2.28;0.80;;;;;;;;;;4933158;29;20040;-83
2023/07/11 07:23:05;;;;;;;2.92;1.00;;;;;;;;;;4933268;29;20147;-82
2023/07/11 07:25:30;;;;;;;3.38;0.80;;;;;;;;;;4937855;29;20528;-82
2023/07/11 07:27:57;;;;;;;2.05;1.02;;;;;;;;;;4941157;29;20039;-80
2023/07/11 07:30:23;;;;;;;2.92;0.93;;;;;;;;;;4951294;29;20415;-81
2023/07/11 07:32:49;;;;;;;2.42;0.98;;;;;;;;;;4935167;29;20039;-81
2023/07/11 07:35:14;;;;;;;2.63;0.88;;;;;;;;;;4951713;29;20055;-80
2023/07/11 07:37:39;;;;;;;1.27;0.80;;;;;;;;;;4952359;29;20416;-80
2023/07/11 07:40:06;;;;;;;3.38;1.13;;;;;;;;;;4951727;29;20071;-80
2023/07/11 07:42:31;;;;;;;3.60;1.30;;;;;;;;;;4952305;29;20125;-80
2023/07/11 07:44:57;;;;;;;5.00;1.50;;;;;;;;;;4933561;29;20130;-81
2023/07/11 07:47:22;;;;;;;2.53;1.17;;;;;;;;;;4932450;29;20047;-80
2023/07/11 07:49:48;;;;;;;4.68;1.65;;;;;;;;;;4931759;29;20039;-81
2023/07/11 07:52:14;;;;;;;5.80;1.95;;;;;;;;;;4932707;29;20054;-81
2023/07/11 07:54:40;;;;;;;3.53;1.48;;;;;;;;;;4938561;29;20072;-78
2023/07/11 07:57:05;;;;;;;4.57;1.45;;;;;;;;;;4937224;29;20063;-80
2023/07/11 07:59:31;;;;;;;4.45;1.70;;;;;;;;;;4941536;29;20050;-80
2023/07/11 08:01:57;;;;;;;4.63;1.65;;;;;;;;;;4939765;29;20047;-79
2023/07/11 08:04:22;;;;;;;5.35;1.35;;;;;;;;;;4943220;29;20110;-80
2023/07/11 08:06:48;;;;;;;2.47;1.27;;;;;;;;;;4945502;29;20042;-80
2023/07/11 08:09:13;;;;;;;2.63;1.20;;;;;;;;;;4943855;29;20085;-80
2023/07/11 08:11:42;;;;;;;3.22;1.10;;;;;;;;;;4944336;29;20463;-79
2023/07/11 08:14:08;;;;;;;2.63;1.15;;;;;;;;;;4936810;29;20591;-80
2023/07/11 08:16:33;;;;;;;3.63;1.20;;;;;;;;;;4925596;29;20186;-80
2023/07/11 08:19:00;;;;;;;3.10;0.90;;;;;;;;;;4938881;29;20055;-81
2023/07/11 08:21:26;;;;;;;2.00;0.80;;;;;;;;;;4947231;29;20047;-80
2023/07/11 08:23:51;;;;;;;1.35;0.80;;;;;;;;;;4943792;29;20076;-80
2023/07/11 08:26:17;;;;;;;1.48;0.52;;;;;;;;;;4942869;29;20527;-82
2023/07/11 08:28:42;;;;;;;2.20;0.60;;;;;;;;;;4934753;29;20123;-78
2023/07/11 08:31:08;;;;;;;0.47;0.38;;;;;;;;;;4937336;29;20419;-80
2023/07/11 08:33:34;;;;;;;2.25;0.55;;;;;;;;;;4943107;29;20105;-80
2023/07/11 08:35:59;;;;;;;1.05;0.30;;;;;;;;;;4944847;29;20062;-79
2023/07/11 08:38:25;;;;;;;0.55;0.40;;;;;;;;;;4937608;29;20055;-80
2023/07/11 08:40:50;;;;;;;0.32;0.20;;;;;;;;;;4935635;29;20067;-80
2023/07/11 08:43:29;;;;;;;1.85;0.40;;;;;;;;;;4935262;29;20111;-80
2023/07/11 08:46:02;;;;;;;1.90;0.30;;;;;;;;;;4916448;29;20044;-80
2023/07/11 08:48:32;;;;;;;1.98;0.40;;;;;;;;;;4928670;29;20040;-79
2023/07/11 08:51:01;;;;;;;2.38;1.00;;;;;;;;;;4934379;29;20135;-80
2023/07/11 08:53:40;;;;;;;1.90;1.15;;;;;;;;;;4933482;29;20559;-79
2023/07/11 08:56:14;;;;;;;4.25;1.60;;;;;;;;;;4934001;29;20042;-79
2023/07/11 08:58:40;;;;;;;3.30;1.50;;;;;;;;;;4939590;29;20505;-79
2023/07/11 09:01:32;;;;;;;7.95;1.98;;;;;;;;;;4948208;29;20079;-79
2023/07/11 09:03:59;;;;;;;5.93;1.75;;;;;;;;;;4946640;29;20040;-77
2023/07/11 09:06:35;;;;;;;8.68;2.22;;;;;;;;;;4934133;29;20050;-77
2023/07/11 09:09:01;;;;;;;6.15;1.95;;;;;;;;;;4934228;29;20122;-78
2023/07/11 09:11:42;;;;;;;5.63;1.73;;;;;;;;;;4934621;29;20592;-78
2023/07/11 09:14:13;;;;;;;9.20;2.03;;;;;;;;;;4934865;29;20068;-79
2023/07/11 09:16:50;;;;;;;6.85;1.92;;;;;;;;;;4937016;29;20050;-79
2023/07/11 09:19:40;;;;;;;4.18;1.80;;;;;;;;;;4942538;29;20052;-79
2023/07/11 09:22:15;;;;;;;2.58;1.25;;;;;;;;;;4936004;29;20048;-79
2023/07/11 09:25:07;;;;;;;3.97;1.70;;;;;;;;;;4919370;29;20055;-79
2023/07/11 09:27:36;;;;;;;4.10;1.77;;;;;;;;;;4931793;29;20468;-79
2023/07/11 09:30:14;;;;;;;6.20;1.52;;;;;;;;;;4926934;29;20070;-79
2023/07/11 09:32:40;;;;;;;4.15;1.80;;;;;;;;;;4949035;29;20051;-79
2023/07/11 09:35:24;;;;;;;5.72;1.73;;;;;;;;;;4934921;29;20097;-79
2023/07/11 09:37:54;;;;;;;3.38;1.30;;;;;;;;;;4934908;29;20039;-80
2023/07/11 09:40:27;;;;;;;4.75;1.60;;;;;;;;;;4930795;29;20051;-79
2023/07/11 09:42:55;;;;;;;4.43;1.67;;;;;;;;;;4931645;29;20575;-77
2023/07/11 09:45:27;;;;;;;4.95;1.55;;;;;;;;;;4934502;29;20147;-79
2023/07/11 09:47:59;;;;;;;2.85;1.50;;;;;;;;;;4935146;29;20073;-78
2023/07/11 09:50:46;;;;;;;2.40;1.17;;;;;;;;;;4933716;29;20134;-78
2023/07/11 09:53:20;;;;;;;2.53;0.98;;;;;;;;;;4933922;29;20043;-78
2023/07/11 09:55:52;;;;;;;3.17;1.17;;;;;;;;;;4935995;29;20044;-79
2023/07/11 09:58:17;;;;;;;1.98;1.02;;;;;;;;;;4933451;29;20130;-78
2023/07/11 10:00:45;;;;;;;2.05;0.90;;;;;;;;;;4934166;29;20119;-78
2023/07/11 10:03:15;;;;;;;1.50;0.80;;;;;;;;;;4933965;29;20417;-78
2023/07/11 10:05:44;;;;;;;2.00;0.88;;;;;;;;;;4933946;29;20047;-79
2023/07/11 10:08:35;;;;;;;1.30;0.70;;;;;;;;;;4933560;29;20063;-78
2023/07/11 10:11:04;;;;;;;1.27;0.70;;;;;;;;;;4934000;29;20110;-77
2023/07/11 10:13:30;;;;;;;1.65;0.70;;;;;;;;;;4936828;29;20074;-78
2023/07/11 10:16:00;;;;;;;1.83;0.60;;;;;;;;;;4943541;29;20134;-80
2023/07/11 10:18:32;;;;;;;2.25;0.88;;;;;;;;;;4942816;29;20047;-80
2023/07/11 10:21:10;;;;;;;1.42;0.68;;;;;;;;;;4931978;29;20043;-80
2023/07/11 10:23:37;;;;;;;1.23;0.70;;;;;;;;;;4932360;29;20044;-80
2023/07/11 10:26:11;;;;;;;0.73;0.40;;;;;;;;;;4933467;29;20039;-79
2023/07/11 10:28:40;;;;;;;2.03;0.57;;;;;;;;;;4932576;29;20053;-77
2023/07/11 10:31:24;;;;;;;2.10;0.60;;;;;;;;;;4934989;29;20051;-79
2023/07/11 10:33:56;;;;;;;1.13;0.60;;;;;;;;;;4928580;29;20571;-78
2023/07/11 10:36:30;;;;;;;0.88;0.70;;;;;;;;;;4935581;29;20044;-80
2023/07/11 10:39:03;;;;;;;3.42;0.75;;;;;;;;;;4936472;29;20051;-78
2023/07/11 10:42:02;;;;;;;2.55;0.68;;;;;;;;;;4931281;29;20055;-78
2023/07/11 10:44:34;;;;;;;1.63;0.85;;;;;;;;;;4911771;29;20043;-79
2023/07/11 10:46:59;;;;;;;1.25;0.60;;;;;;;;;;4931896;29;20048;-80
2023/07/11 10:49:35;;;;;;;0.85;0.40;;;;;;;;;;4931239;29;20428;-79
2023/07/11 10:52:06;;;;;;;1.27;0.50;;;;;;;;;;4931625;29;20535;-80
2023/07/11 10:54:53;;;;;;;0.55;0.40;;;;;;;;;;4931643;29;20042;-80
2023/07/11 10:57:45;;;;;;;0.40;0.20;;;;;;;;;;4930943;29;20055;-80
2023/07/11 11:00:18;;;;;;;0.90;0.30;;;;;;;;;;4931693;29;20051;-80
2023/07/11 11:02:50;;;;;;;0.65;0.43;;;;;;;;;;4931306;29;20067;-78
2023/07/11 11:05:39;;;;;;;0.80;0.45;;;;;;;;;;4931593;29;20094;-77
2023/07/11 11:08:22;;;;;;;0.43;0.40;;;;;;;;;;4930486;29;20063;-75
2023/07/11 11:11:06;;;;;;;0.30;0.30;;;;;;;;;;4930576;29;20402;-75
2023/07/11 11:14:01;;;;;;;2.53;0.50;;;;;;;;;;4931587;29;20135;-74
2023/07/11 11:16:31;;;;;;;1.27;0.50;;;;;;;;;;4932035;29;20047;-76
2023/07/11 11:19:09;;;;;;;1.02;0.40;;;;;;;;;;4929902;29;20046;-76
2023/07/11 11:21:53;;;;;;;1.70;0.50;;;;;;;;;;4932171;29;20069;-75
2023/07/11 11:24:57;;;;;;;0.98;0.73;;;;;;;;;;4929967;29;20135;-75
2023/07/11 11:27:25;;;;;;;1.63;0.60;;;;;;;;;;4856688;29;20522;-75
2023/07/11 11:30:00;;;;;;;1.83;1.13;;;;;;;;;;4854684;29;20110;-76
2023/07/11 11:32:41;;;;;;;2.17;0.88;;;;;;;;;;4853045;29;20118;-75
2023/07/11 11:35:24;;;;;;;1.15;0.70;;;;;;;;;;4859827;29;20073;-77
2023/07/11 11:38:17;;;;;;;1.30;0.90;;;;;;;;;;4861978;29;20070;-78
2023/07/11 11:40:46;;;;;;;1.77;0.60;;;;;;;;;;4848593;29;20117;-77
2023/07/11 11:43:14;;;;;;;1.88;0.80;;;;;;;;;;4864582;29;20207;-81
2023/07/11 11:45:40;;;;;;;1.57;0.80;;;;;;;;;;4849670;29;20117;-80
2023/07/11 11:48:16;;;;;;;1.35;0.95;;;;;;;;;;4865695;29;20061;-79
2023/07/11 11:50:42;;;;;;;1.20;0.65;;;;;;;;;;4867315;29;20140;-78
2023/07/11 11:53:35;;;;;;;2.95;0.70;;;;;;;;;;4868641;29;20054;-77
2023/07/11 11:56:05;;;;;;;1.85;0.90;;;;;;;;;;4863636;29;20050;-78
2023/07/11 11:58:33;;;;;;;2.60;0.93;;;;;;;;;;4866379;29;20045;-77
2023/07/11 12:00:59;;;;;;;1.65;0.90;;;;;;;;;;4864605;29;20061;-77
2023/07/11 12:03:33;;;;;;;2.33;1.02;;;;;;;;;;4916610;29;20059;-77
2023/07/11 12:06:03;;;;;;;2.35;1.00;;;;;;;;;;4931023;29;20050;-77
2023/07/11 12:08:34;;;;;;;2.08;0.93;;;;;;;;;;4936058;29;20151;-78
2023/07/11 12:11:19;;;;;;;1.88;0.70;;;;;;;;;;4935983;29;20464;-77
2023/07/11 12:14:18;;;;;;;1.00;0.80;;;;;;;;;;4936101;29;20476;-76
2023/07/11 12:16:48;;;;;;;0.70;0.50;;;;;;;;;;4935836;29;20183;-76
2023/07/11 12:19:42;;;;;;;1.13;0.70;;;;;;;;;;4936346;29;20039;-78
2023/07/11 12:22:09;;;;;;;1.33;0.60;;;;;;;;;;4936635;29;20043;-77
2023/07/11 12:24:35;;;;;;;3.58;0.70;;;;;;;;;;4937911;29;20051;-78
2023/07/11 12:27:16;;;;;;;3.05;1.13;;;;;;;;;;4937826;29;20075;-78
2023/07/11 12:29:48;;;;;;;3.45;1.27;;;;;;;;;;4937552;29;20469;-78
2023/07/11 12:32:32;;;;;;;4.18;1.35;;;;;;;;;;4949539;29;20050;-78
2023/07/11 12:35:07;;;;;;;6.38;1.80;;;;;;;;;;4940444;29;20532;-78
2023/07/11 12:38:06;;;;;;;5.85;1.95;;;;;;;;;;4956911;29;20054;-76
2023/07/11 12:40:48;;;;;;;3.42;1.77;;;;;;;;;;4916219;29;20047;-77
2023/07/11 12:43:24;;;;;;;3.67;1.63;;;;;;;;;;4935037;29;20072;-77
2023/07/11 12:45:54;;;;;;;2.70;1.25;;;;;;;;;;4934844;29;20130;-77
2023/07/11 12:48:21;;;;;;;3.70;1.60;;;;;;;;;;4937427;29;20504;-77
2023/07/11 12:50:56;;;;;;;5.22;1.73;;;;;;;;;;4937111;29;20043;-77
2023/07/11 12:53:22;;;;;;;4.10;1.88;;;;;;;;;;4928739;29;20044;-77
2023/07/11 12:55:50;;;;;;;6.28;2.08;;;;;;;;;;4927031;29;20040;-76
2023/07/11 12:58:20;;;;;;;4.60;1.85;;;;;;;;;;4925832;29;20051;-77
2023/07/11 13:00:47;;;;;;;8.75;2.28;;;;;;;;;;4934757;29;20052;-76
2023/07/11 13:03:24;;;;;;;5.13;1.80;;;;;;;;;;4918484;29;20047;-77
2023/07/11 13:05:52;;;;;;;5.78;1.92;;;;;;;;;;4934968;29;20042;-76
2023/07/11 13:08:18;;;;;;;;;;;;;;;;;;4935881;29;20051;-76
2023/07/11 13:10:49;;;;;;;9.18;2.10;;;;;;;;;;4935664;29;20336;-76
2023/07/11 13:13:15;;;;;;;6.93;2.05;;;;;;;;;;4934507;29;20055;-76
2023/07/11 13:15:41;;;;;;;4.95;1.85;;;;;;;;;;4934687;29;20040;-76
2023/07/11 13:18:26;;;;;;;8.10;2.40;;;;;;;;;;4934325;29;20522;-77
2023/07/11 13:20:58;;;;;;;8.25;2.20;;;;;;;;;;4933848;29;20140;-77
2023/07/11 13:23:24;;;;;;;5.78;2.10;;;;;;;;;;4933254;29;20054;-75
2023/07/11 13:25:52;;;;;;;6.75;2.40;;;;;;;;;;4935707;29;20454;-77
2023/07/11 13:28:20;;;;;;;4.40;1.95;;;;;;;;;;4934536;29;20396;-76
2023/07/11 13:30:58;;;;;;;5.65;2.42;;;;;;;;;;4935340;29;20370;-77
2023/07/11 13:33:37;;;;;;;6.88;2.05;;;;;;;;;;4935016;29;20066;-77
2023/07/11 13:36:19;;;;;;;8.45;2.15;;;;;;;;;;4934972;29;20083;-76
2023/07/11 13:38:44;;;;;;;8.38;2.30;;;;;;;;;;4934913;29;20115;-77
2023/07/11 13:41:15;;;;;;;8.18;2.20;;;;;;;;;;4934989;29;20059;-76
2023/07/11 13:43:41;;;;;;;7.47;1.90;;;;;;;;;;4934603;29;20501;-78
2023/07/11 13:46:06;;;;;;;8.10;2.25;;;;;;;;;;4934775;29;20143;-78
2023/07/11 13:48:34;;;;;;;11.55;2.63;;;;;;;;;;4935047;29;20126;-77
2023/07/11 13:51:15;;;;;;;8.20;2.45;;;;;;;;;;4933637;29;20130;-78
2023/07/11 13:53:46;;;;;;;5.65;2.20;;;;;;;;;;4933680;29;20553;-78
2023/07/11 13:56:11;;;;;;;10.27;2.63;;;;;;;;;;4928674;29;20044;-78
2023/07/11 13:58:37;;;;;;;6.07;2.20;;;;;;;;;;4934678;29;20500;-77
2023/07/11 14:01:02;;;;;;;9.27;2.33;;;;;;;;;;4934892;29;20039;-77
2023/07/11 14:03:28;;;;;;;10.23;2.50;;;;;;;;;;4934277;29;20401;-78
2023/07/11 14:05:56;;;;;;;9.10;2.50;;;;;;;;;;4946680;29;20051;-76
2023/07/11 14:08:21;;;;;;;8.25;2.35;;;;;;;;;;4947654;29;20055;-76
2023/07/11 14:10:49;;;;;;;7.70;2.63;;;;;;;;;;4949854;29;20040;-76
2023/07/11 14:13:26;;;;;;;9.00;2.85;;;;;;;;;;4948470;29;20050;-75
2023/07/11 14:15:53;;;;;;;9.75;2.70;;;;;;;;;;4945690;29;20576;-75
2023/07/11 14:18:18;;;;;;;7.35;2.60;;;;;;;;;;4946838;29;20047;-76
2023/07/11 14:20:43;;;;;;;11.90;2.92;;;;;;;;;;4949371;29;20044;-78
2023/07/11 14:23:15;;;;;;;7.45;2.60;;;;;;;;;;4949704;29;20047;-78
2023/07/11 14:25:40;;;;;;;6.43;2.20;;;;;;;;;;4949310;29;20062;-77
2023/07/11 14:28:11;;;;;;;5.55;2.28;;;;;;;;;;4949180;29;20040;-78
2023/07/11 14:30:37;;;;;;;8.93;2.40;;;;;;;;;;4950676;29;20048;-77
2023/07/11 14:33:08;;;;;;;6.35;2.17;;;;;;;;;;4963245;29;20055;-77
2023/07/11 14:35:33;;;;;;;6.03;2.38;;;;;;;;;;4947494;29;20047;-76
2023/07/11 14:37:58;;;;;;;8.00;2.80;;;;;;;;;;4948604;29;20048;-77
2023/07/11 14:40:26;;;;;;;4.30;2.03;;;;;;;;;;4948902;29;20068;-77
2023/07/11 14:42:52;;;;;;;6.85;2.22;;;;;;;;;;4948771;29;20036;-77
2023/07/11 14:45:20;;;;;;;8.20;2.22;;;;;;;;;;4948685;29;20079;-77
2023/07/11 14:47:46;;;;;;;5.07;2.03;;;;;;;;;;4943787;29;20051;-76
2023/07/11 14:50:23;;;;;;;6.57;2.40;;;;;;;;;;4943345;29;20302;-76
2023/07/11 14:52:50;;;;;;;6.50;2.03;;;;;;;;;;4945382;29;20043;-78
2023/07/11 14:55:18;;;;;;;7.90;2.30;;;;;;;;;;4945064;29;20484;-77
2023/07/11 14:57:47;;;;;;;5.63;1.98;;;;;;;;;;4948427;29;20040;-77
2023/07/11 15:00:20;;;;;;;3.25;1.55;;;;;;;;;;4947443;29;20056;-77
2023/07/11 15:02:47;;;;;;;5.30;1.50;;;;;;;;;;4947507;29;20044;-76
2023/07/11 15:05:18;;;;;;;5.38;1.80;;;;;;;;;;4944639;29;20043;-77
2023/07/11 15:07:47;;;;;;;3.90;1.65;;;;;;;;;;4945122;29;20049;-77
2023/07/11 15:10:12;;;;;;;4.72;1.50;;;;;;;;;;4944519;29;20052;-76
2023/07/11 15:12:38;;;;;;;4.93;1.77;;;;;;;;;;4944754;29;20128;-75
2023/07/11 15:15:15;;;;;;;6.43;1.77;;;;;;;;;;4943621;29;20036;-75
2023/07/11 15:17:41;;;;;;;7.60;2.30;;;;;;;;;;4942809;29;20055;-76
2023/07/11 15:20:14;;;;;;;5.05;1.85;;;;;;;;;;4943839;29;20396;-76
2023/07/11 15:22:42;;;;;;;3.35;1.10;;;;;;;;;;4944971;29;20048;-76
2023/07/11 15:25:28;;;;;;;4.70;1.10;;;;;;;;;;4943278;29;20040;-77
2023/07/11 15:27:53;;;;;;;3.28;1.00;;;;;;;;;;4942557;29;20043;-76
2023/07/11 15:30:19;;;;;;;3.03;0.90;;;;;;;;;;4942518;29;20043;-77
2023/07/11 15:32:44;;;;;;;2.63;1.00;;;;;;;;;;4954676;29;20043;-75
2023/07/11 15:35:29;;;;;;;3.55;1.02;;;;;;;;;;4955656;29;20563;-75
2023/07/11 15:37:54;;;;;;;2.28;1.15;;;;;;;;;;4959021;29;20083;-75
2023/07/11 15:40:26;;;;;;;1.50;0.98;;;;;;;;;;4961501;29;20646;-75
2023/07/11 15:42:53;;;;;;;2.90;0.82;;;;;;;;;;4961164;29;20043;-75
2023/07/11 15:45:18;;;;;;;2.85;1.08;;;;;;;;;;4941625;29;20512;-75
2023/07/11 15:47:43;;;;;;;2.30;0.77;;;;;;;;;;4941878;29;20050;-75
2023/07/11 15:50:14;;;;;;;5.10;1.13;;;;;;;;;;4945274;29;20040;-75
2023/07/11 15:52:39;;;;;;;3.72;1.00;;;;;;;;;;4944626;29;20037;-75
2023/07/11 15:55:05;;;;;;;3.90;0.95;;;;;;;;;;4945264;29;20055;-75
2023/07/11 15:57:33;;;;;;;2.03;0.80;;;;;;;;;;4941170;29;20049;-76
2023/07/11 15:59:58;;;;;;;2.50;0.90;;;;;;;;;;4942118;29;20056;-76
2023/07/11 16:02:24;;;;;;;2.28;0.80;;;;;;;;;;4944668;29;20060;-75
2023/07/11 16:04:49;;;;;;;2.60;0.80;;;;;;;;;;4943796;29;20039;-75
2023/07/11 16:07:17;;;;;;;3.45;0.70;;;;;;;;;;4943166;29;20074;-76
2023/07/11 16:09:44;;;;;;;2.85;0.70;;;;;;;;;;4944406;29;20047;-75
2023/07/11 16:12:12;;;;;;;1.10;0.65;;;;;;;;;;4944202;29;20043;-75
2023/07/11 16:14:38;;;;;;;4.05;1.10;;;;;;;;;;4944294;29;20517;-76
2023/07/11 16:17:04;;;;;;;2.25;0.85;;;;;;;;;;4943683;29;20044;-76
2023/07/11 16:19:31;;;;;;;3.35;0.85;;;;;;;;;;4945347;29;20044;-76
2023/07/11 16:21:59;;;;;;;3.17;1.00;;;;;;;;;;4945963;29;20043;-77
2023/07/11 16:24:25;;;;;;;4.00;1.45;;;;;;;;;;4934529;29;20059;-77
2023/07/11 16:26:54;;;;;;;4.57;1.30;;;;;;;;;;4934959;29;20047;-76
2023/07/11 16:29:26;;;;;;;3.88;1.40;;;;;;;;;;4933957;29;20048;-76
2023/07/11 16:31:52;;;;;;;4.68;1.42;;;;;;;;;;4943380;29;20553;-76
2023/07/11 16:34:23;;;;;;;4.55;1.23;;;;;;;;;;4954699;29;20067;-77
2023/07/11 16:36:54;;;;;;;3.13;1.20;;;;;;;;;;4954862;29;20416;-76
2023/07/11 16:39:25;;;;;;;6.82;1.52;;;;;;;;;;4954634;29;20066;-75
2023/07/11 16:41:51;;;;;;;5.38;1.55;;;;;;;;;;4955608;29;20077;-76
2023/07/11 16:44:18;;;;;;;7.32;2.25;;;;;;;;;;4943694;29;20039;-76
2023/07/11 16:46:56;;;;;;;4.07;1.35;;;;;;;;;;4946746;29;20047;-76
2023/07/11 16:49:22;;;;;;;6.13;1.90;;;;;;;;;;4950881;29;20071;-76
2023/07/11 16:51:48;;;;;;;5.13;1.52;;;;;;;;;;4952453;29;20434;-76
2023/07/11 16:54:16;;;;;;;6.63;1.98;;;;;;;;;;4951628;29;20155;-76
2023/07/11 16:56:43;;;;;;;4.82;1.67;;;;;;;;;;4960452;29;20051;-77
2023/07/11 16:59:14;;;;;;;10.35;2.10;;;;;;;;;;4940719;29;20040;-77
2023/07/11 17:01:40;;;;;;;7.55;2.22;;;;;;;;;;4952571;29;20046;-78
2023/07/11 17:04:08;;;;;;;9.32;1.92;;;;;;;;;;4951882;29;20055;-76
2023/07/11 17:06:33;;;;;;;7.20;2.58;;;;;;;;;;4951475;29;20075;-76
2023/07/11 17:09:01;;;;;;;11.25;2.55;;;;;;;;;;4951731;29;20060;-77
2023/07/11 17:11:27;;;;;;;14.23;3.58;;;;;;;;;;4953905;29;20066;-77
2023/07/11 17:13:52;;;;;;;11.77;2.72;;;;;;;;;;4956380;29;20051;-77
2023/07/11 17:16:23;;;;;;;11.90;2.72;;;;;;;;;;4950925;29;20047;-76
2023/07/11 17:18:48;;;;;;;9.07;2.85;;;;;;;;;;4947958;29;20054;-76
2023/07/11 17:21:14;;;;;;;6.68;2.60;;;;;;;;;;4946930;29;20039;-74
2023/07/11 17:23:39;;;;;;;10.70;3.00;;;;;;;;;;4950576;29;20044;-76
2023/07/11 17:26:12;;;;;;;11.95;2.70;;;;;;;;;;4951961;29;20039;-76
2023/07/11 17:28:37;;;;;;;14.63;3.80;;;;;;;;;;4940784;29;20066;-76
2023/07/11 17:31:03;;;;;;;12.98;2.72;;;;;;;;;;4958902;29;20058;-77
2023/07/11 17:33:29;;;;;;;8.80;3.00;;;;;;;;;;4951071;29;20052;-76
2023/07/11 17:35:57;;;;;;;15.98;3.08;;;;;;;;;;4938956;29;20050;-75
2023/07/11 17:38:25;;;;;;;17.50;3.40;;;;;;;;;;4926314;29;20134;-77
2023/07/11 17:40:51;;;;;;;13.00;3.10;;;;;;;;;;4944138;29;20091;-75
2023/07/11 17:43:24;;;;;;;11.75;3.25;;;;;;;;;;4951297;29;20496;-77
2023/07/11 17:45:49;;;;;;;16.92;3.75;;;;;;;;;;4949280;29;20069;-76
2023/07/11 17:48:22;;;;;;;15.38;3.35;;;;;;;;;;4936104;29;20066;-77
2023/07/11 17:50:50;;;;;;;13.50;3.40;;;;;;;;;;4939920;29;20674;-77
2023/07/11 17:53:16;;;;;;;14.82;3.30;;;;;;;;;;4940611;29;20067;-77
2023/07/11 17:55:43;;;;;;;14.13;3.30;;;;;;;;;;4943613;29;20048;-78
2023/07/11 17:58:26;;;;;;;13.00;3.35;;;;;;;;;;4928822;29;20044;-78
2023/07/11 18:00:53;;;;;;;10.00;3.45;;;;;;;;;;4928044;29;20107;-78
2023/07/11 18:03:23;;;;;;;;;;;;;;;;;;4927410;29;20048;-78
2023/07/11 18:05:49;;;;;;;13.07;2.95;;;;;;;;;;4909708;29;19938;-78
2023/07/11 18:08:18;;;;;;;22.75;3.83;;;;;;;;;;4925759;29;20063;-77
2023/07/11 18:10:46;;;;;;;13.65;3.65;;;;;;;;;;4934471;29;20082;-77
2023/07/11 18:13:12;;;;;;;16.95;3.88;;;;;;;;;;4937196;29;20130;-78
2023/07/11 18:15:42;;;;;;;14.38;3.22;;;;;;;;;;4927577;29;20053;-79
2023/07/11 18:18:26;;;;;;;13.27;3.30;;;;;;;;;;4925414;29;20059;-76
2023/07/11 18:20:53;;;;;;;11.88;3.78;;;;;;;;;;4927936;29;20539;-77
2023/07/11 18:23:18;;;;;;;16.23;3.60;;;;;;;;;;4926437;29;20058;-76
2023/07/11 18:25:45;;;;;;;17.27;3.75;;;;;;;;;;4927152;29;20048;-79
2023/07/11 18:28:17;;;;;;;21.05;3.40;;;;;;;;;;4927227;29;20043;-79
2023/07/11 18:30:43;;;;;;;11.95;3.90;;;;;;;;;;4927459;29;20044;-77
2023/07/11 18:33:09;;;;;;;16.45;3.58;;;;;;;;;;4907860;29;20528;-80
2023/07/11 18:35:37;;;;;;;22.83;3.92;;;;;;;;;;4935511;29;20054;-78
2023/07/11 18:38:03;;;;;;;15.90;3.83;;;;;;;;;;4946478;29;20051;-79
2023/07/11 18:40:32;;;;;;;17.45;3.53;;;;;;;;;;4942241;29;20050;-79
2023/07/11 18:43:02;;;;;;;13.57;3.88;;;;;;;;;;4926770;29;20064;-79
2023/07/11 18:45:28;;;;;;;14.60;3.95;;;;;;;;;;4926597;29;20054;-75
2023/07/11 18:47:54;;;;;;;18.33;4.07;;;;;;;;;;4927079;29;20039;-79
2023/07/11 18:50:28;;;;;;;18.00;3.58;;;;;;;;;;4926510;29;20162;-79
2023/07/11 18:52:54;;;;;;;24.60;3.83;;;;;;;;;;4927090;29;20044;-78
2023/07/11 18:55:19;;;;;;;13.68;3.42;;;;;;;;;;4926462;29;20047;-78
2023/07/11 18:57:46;;;;;;;17.38;4.35;;;;;;;;;;4926918;29;20070;-77
2023/07/11 19:00:30;;;;;;;22.30;4.65;;;;;;;;;;4922574;29;20064;-78
2023/07/11 19:02:55;;;;;;;21.98;4.30;;;;;;;;;;4934959;29;20062;-77
2023/07/11 19:05:21;;;;;;;14.38;4.18;;;;;;;;;;4931671;29;20075;-78
2023/07/11 19:07:47;;;;;;;26.05;4.63;;;;;;;;;;4927017;29;20040;-78
2023/07/11 19:10:24;;;;;;;16.45;4.05;;;;;;;;;;4920986;29;20047;-75
2023/07/11 19:12:50;;;;;;;21.70;4.15;;;;;;;;;;4926532;29;20492;-74
2023/07/11 19:15:21;;;;;;;16.75;3.55;;;;;;;;;;4928454;29;20039;-77
2023/07/11 19:17:53;;;;;;;14.90;3.90;;;;;;;;;;4936065;29;20150;-78
2023/07/11 19:20:26;;;;;;;17.27;3.58;;;;;;;;;;4921604;29;20040;-77
2023/07/11 19:23:05;;;;;;;18.92;4.57;;;;;;;;;;4935044;29;20804;-77
2023/07/11 19:25:35;;;;;;;;;;;;;;;;;;4924758;29;20087;-77
2023/07/11 19:28:05;;;;;;;21.45;4.43;;;;;;;;;;4931778;29;20340;-77
2023/07/11 19:30:32;;;;;;;23.83;3.72;;;;;;;;;;4924807;29;20044;-76
2023/07/11 19:32:59;;;;;;;21.38;4.40;;;;;;;;;;4925540;29;20125;-77
2023/07/11 19:35:26;;;;;;;18.52;4.25;;;;;;;;;;4945466;29;22288;-75
2023/07/11 19:37:53;;;;;;;23.20;4.18;;;;;;;;;;4938425;29;20067;-78
2023/07/11 19:40:22;;;;;;;19.38;4.05;;;;;;;;;;4926441;29;20047;-78
2023/07/11 19:42:48;;;;;;;22.55;4.57;;;;;;;;;;4925399;29;20462;-77
2023/07/11 19:45:16;;;;;;;24.92;4.57;;;;;;;;;;4924453;29;20052;-78
2023/07/11 19:47:42;;;;;;;23.67;4.80;;;;;;;;;;4923918;29;20043;-77
2023/07/11 19:50:35;;;;;;;26.08;5.13;;;;;;;;;;4932124;29;20044;-77
2023/07/11 19:53:01;;;;;;;23.50;5.15;;;;;;;;;;4929745;29;20058;-77
2023/07/11 19:55:27;;;;;;;23.05;5.43;;;;;;;;;;4941471;29;20055;-76
2023/07/11 19:57:53;;;;;;;30.27;4.93;;;;;;;;;;4941926;29;20043;-77
2023/07/11 20:00:25;;;;;;;25.60;5.88;;;;;;;;;;4942203;29;20071;-76
2023/07/11 20:02:51;;;;;;;26.63;5.38;;;;;;;;;;4941993;29;20873;-78
2023/07/11 20:05:16;;;;;;;20.27;4.82;;;;;;;;;;4939710;29;20067;-77
2023/07/11 20:07:42;;;;;;;25.88;5.28;;;;;;;;;;4938438;29;20059;-76
2023/07/11 20:10:19;;;;;;;24.33;5.60;;;;;;;;;;4935938;29;20521;-75
2023/07/11 20:12:44;;;;;;;21.63;4.53;;;;;;;;;;4938233;29;20051;-79
2023/07/11 20:15:14;;;;;;;29.33;5.95;;;;;;;;;;4933840;29;20425;-77
2023/07/11 20:17:40;;;;;;;23.98;4.97;;;;;;;;;;4937920;29;20048;-76
2023/07/11 20:20:27;;;;;;;31.88;6.45;;;;;;;;;;4937640;29;20074;-79
2023/07/11 20:22:52;;;;;;;24.45;5.47;;;;;;;;;;4938479;29;20071;-78
2023/07/11 20:25:19;;;;;;;20.15;4.32;;;;;;;;;;4936977;29;20895;-78
2023/07/11 20:27:45;;;;;;;21.27;5.25;;;;;;;;;;4936790;29;20082;-78
2023/07/11 20:30:20;;;;;;;27.25;5.82;;;;;;;;;;4936163;29;20052;-73
2023/07/11 20:32:46;;;;;;;22.55;5.45;;;;;;;;;;4944671;29;20135;-76
2023/07/11 20:35:12;;;;;;;27.35;5.70;;;;;;;;;;4937679;29;20071;-77
2023/07/11 20:37:38;;;;;;;24.83;5.60;;;;;;;;;;4937453;29;20067;-77
2023/07/11 20:40:18;;;;;;;19.45;5.15;;;;;;;;;;4937874;29;20040;-76
2023/07/11 20:42:43;;;;;;;32.58;5.90;;;;;;;;;;4938259;29;20044;-78
2023/07/11 20:45:11;;;;;;;21.45;5.70;;;;;;;;;;4938809;29;20050;-76
2023/07/11 20:47:37;;;;;;;26.25;5.55;;;;;;;;;;4938452;29;20051;-76
2023/07/11 20:50:14;;;;;;;22.15;5.80;;;;;;;;;;4938912;29;20055;-76
2023/07/11 20:52:40;;;;;;;20.90;5.10;;;;;;;;;;4939025;29;20151;-76
2023/07/11 20:55:06;;;;;;;25.25;5.45;;;;;;;;;;4937233;29;20067;-75
2023/07/11 20:57:32;;;;;;;20.73;5.43;;;;;;;;;;4939726;29;20040;-74